Time;durP1;ratioP1;P1;durP2;ratioP2;P2;SDS_P1;SDS_P2;PMS_P1;PMS_P2;Temp;Humidity;BMP_temperature;BMP_pressure;BME280_temperature;BME280_humidity;BME280_pressure;Samples;Min_cycle;Max_cycle;Signal;HPM_P1;HPM_P2
2021/10/11 00:01:54;;;;;;;58.75;3.10;;;4.40;1.00;;;;;;5131791;27;20209;-72
2021/10/11 00:04:21;;;;;;;59.05;3.28;;;4.40;1.00;;;;;;5133233;27;20238;-71
2021/10/11 00:06:48;;;;;;;58.67;3.20;;;4.30;1.00;;;;;;5132943;27;20717;-73
2021/10/11 00:09:16;;;;;;;58.45;3.08;;;4.30;1.00;;;;;;5133543;27;20728;-72
2021/10/11 00:11:43;;;;;;;58.80;3.10;;;4.20;1.00;;;;;;5133503;27;20210;-73
2021/10/11 00:14:10;;;;;;;59.00;3.30;;;4.20;1.00;;;;;;5133345;27;20680;-73
2021/10/11 00:16:37;;;;;;;59.00;3.60;;;4.10;1.00;;;;;;5133092;27;20608;-72
2021/10/11 00:19:04;;;;;;;58.80;3.30;;;4.10;1.00;;;;;;5133064;27;20317;-72
2021/10/11 00:21:31;;;;;;;58.88;3.45;;;4.10;1.00;;;;;;5133392;27;20214;-72
2021/10/11 00:23:58;;;;;;;58.80;3.60;;;4.00;1.00;;;;;;5132984;27;20210;-72
2021/10/11 00:26:26;;;;;;;58.90;3.17;;;4.00;1.00;;;;;;5133076;27;20230;-72
2021/10/11 00:28:53;;;;;;;58.95;3.40;;;4.00;1.00;;;;;;5133009;27;20229;-72
2021/10/11 00:31:20;;;;;;;58.67;2.90;;;3.90;1.00;;;;;;5133528;27;20298;-72
2021/10/11 00:33:46;;;;;;;59.10;3.78;;;3.90;1.00;;;;;;5131200;27;20238;-72
2021/10/11 00:36:13;;;;;;;59.20;3.72;;;3.90;1.00;;;;;;5132620;27;20202;-72
2021/10/11 00:38:40;;;;;;;58.90;3.78;;;3.90;1.00;;;;;;5132712;27;20310;-73
2021/10/11 00:41:07;;;;;;;58.80;2.90;;;3.80;1.00;;;;;;5132744;27;20247;-73
2021/10/11 00:43:37;;;;;;;58.65;3.10;;;3.80;1.00;;;;;;5132996;27;20203;-73
2021/10/11 00:46:03;;;;;;;59.00;3.85;;;3.80;1.00;;;;;;5132525;27;20203;-73
2021/10/11 00:48:30;;;;;;;59.00;3.40;;;3.80;1.00;;;;;;5132833;27;20621;-72
2021/10/11 00:50:58;;;;;;;58.80;3.25;;;3.70;1.00;;;;;;5132662;27;20202;-72
2021/10/11 00:53:26;;;;;;;58.50;3.10;;;3.70;1.00;;;;;;5132716;27;20206;-72
2021/10/11 00:55:53;;;;;;;58.70;2.95;;;3.70;1.00;;;;;;5132258;27;20259;-72
2021/10/11 00:58:20;;;;;;;58.65;2.90;;;3.70;1.00;;;;;;5132995;27;20226;-72
2021/10/11 01:00:48;;;;;;;58.13;2.85;;;3.60;1.00;;;;;;5132531;27;20754;-73
2021/10/11 01:03:16;;;;;;;58.70;2.72;;;3.60;1.00;;;;;;5132795;27;20206;-73
2021/10/11 01:05:43;;;;;;;58.80;2.85;;;3.60;1.00;;;;;;5130793;27;20205;-72
2021/10/11 01:08:10;;;;;;;58.78;3.35;;;3.60;1.00;;;;;;5132239;27;20219;-72
2021/10/11 01:10:37;;;;;;;60.63;3.42;;;3.60;1.00;;;;;;5132765;28;20205;-72
2021/10/11 01:13:04;;;;;;;59.15;3.30;;;3.50;1.00;;;;;;5132752;28;20207;-72
2021/10/11 01:15:31;;;;;;;58.80;3.53;;;3.50;1.00;;;;;;5134136;27;20310;-72
2021/10/11 01:17:59;;;;;;;58.67;3.20;;;3.50;1.00;;;;;;5136786;27;20592;-72
2021/10/11 01:20:28;;;;;;;58.55;3.10;;;3.50;1.00;;;;;;5136491;27;20234;-73
2021/10/11 01:22:56;;;;;;;59.10;4.55;;;3.50;1.00;;;;;;5136538;27;20913;-72
2021/10/11 01:25:23;;;;;;;58.38;3.13;;;3.50;1.00;;;;;;5136239;27;20668;-72
2021/10/11 01:27:50;;;;;;;58.40;3.10;;;3.40;1.00;;;;;;5136676;27;20290;-73
2021/10/11 01:30:19;;;;;;;58.45;3.05;;;3.40;1.00;;;;;;5136571;27;20745;-72
2021/10/11 01:32:46;;;;;;;58.47;2.78;;;3.40;1.00;;;;;;5136586;27;20227;-71
2021/10/11 01:35:15;;;;;;;58.88;3.13;;;3.40;1.00;;;;;;5136323;27;20765;-72
2021/10/11 01:37:47;;;;;;;58.88;3.28;;;3.40;1.00;;;;;;5123902;27;20314;-73
2021/10/11 01:40:15;;;;;;;58.92;3.38;;;3.40;1.00;;;;;;5115578;28;20204;-74
2021/10/11 01:42:42;;;;;;;58.72;3.30;;;3.40;1.00;;;;;;5115950;28;20207;-73
2021/10/11 01:45:10;;;;;;;58.75;3.10;;;3.40;1.00;;;;;;5115221;27;20294;-74
2021/10/11 01:47:36;;;;;;;58.50;3.00;;;3.40;1.00;;;;;;5135902;27;20199;-74
2021/10/11 01:50:04;;;;;;;58.50;3.17;;;3.30;1.00;;;;;;5136374;27;20655;-73
2021/10/11 01:52:31;;;;;;;58.58;3.30;;;3.30;1.00;;;;;;5136015;27;20214;-74
2021/10/11 01:55:00;;;;;;;60.63;3.60;;;3.30;1.00;;;;;;5136137;27;20687;-74
2021/10/11 01:57:26;;;;;;;58.97;3.40;;;3.30;1.00;;;;;;5135602;27;20313;-74
2021/10/11 01:59:53;;;;;;;58.80;3.17;;;3.30;1.00;;;;;;5135763;27;20254;-73
2021/10/11 02:02:20;;;;;;;58.90;3.20;;;3.30;1.00;;;;;;5136064;27;20286;-73
2021/10/11 02:04:47;;;;;;;60.05;4.30;;;3.30;1.00;;;;;;5135912;27;20649;-73
2021/10/11 02:07:14;;;;;;;58.78;3.17;;;3.30;1.00;;;;;;5135460;27;20234;-74
2021/10/11 02:09:40;;;;;;;58.88;3.17;;;3.30;1.00;;;;;;5133593;27;20219;-73
2021/10/11 02:12:09;;;;;;;58.97;3.20;;;3.30;1.00;;;;;;5135641;27;20242;-73
2021/10/11 02:14:36;;;;;;;59.95;3.72;;;3.30;1.00;;;;;;5135901;27;20289;-73
2021/10/11 02:17:03;;;;;;;58.58;3.20;;;3.20;1.00;;;;;;5135497;27;20261;-73
2021/10/11 02:19:30;;;;;;;58.97;3.22;;;3.20;1.00;;;;;;5135350;27;20306;-73
2021/10/11 02:21:57;;;;;;;58.55;3.05;;;3.20;1.00;;;;;;5135549;27;20657;-73
2021/10/11 02:24:23;;;;;;;58.42;3.50;;;3.10;1.00;;;;;;5135303;27;20715;-71
2021/10/11 02:26:50;;;;;;;59.30;5.28;;;3.10;1.00;;;;;;5134476;27;20209;-70
2021/10/11 02:29:19;;;;;;;58.67;3.30;;;3.10;1.00;;;;;;5135414;27;20219;-71
2021/10/11 02:31:46;;;;;;;58.38;3.20;;;3.10;1.00;;;;;;5135573;27;20294;-74
2021/10/11 02:34:13;;;;;;;58.67;3.60;;;3.10;1.00;;;;;;5135354;27;20290;-73
2021/10/11 02:36:39;;;;;;;58.90;3.70;;;3.10;1.00;;;;;;5134930;27;20234;-74
2021/10/11 02:39:06;;;;;;;58.75;3.30;;;3.10;1.00;;;;;;5135177;27;20750;-73
2021/10/11 02:41:33;;;;;;;58.88;3.50;;;3.10;1.00;;;;;;5132986;27;20242;-73
2021/10/11 02:44:00;;;;;;;58.80;3.10;;;3.00;1.00;;;;;;5135429;27;20305;-74
2021/10/11 02:46:28;;;;;;;59.65;3.55;;;3.00;1.00;;;;;;5134592;27;20306;-73
2021/10/11 02:48:55;;;;;;;58.67;3.20;;;3.00;1.00;;;;;;5134915;27;20262;-73
2021/10/11 02:51:22;;;;;;;58.78;3.38;;;2.90;1.00;;;;;;5135069;27;20239;-74
2021/10/11 02:53:50;;;;;;;58.58;3.03;;;2.90;1.00;;;;;;5134962;27;20285;-73
2021/10/11 02:56:17;;;;;;;58.80;3.60;;;2.90;1.00;;;;;;5134748;27;20207;-74
2021/10/11 02:58:44;;;;;;;58.13;3.10;;;2.90;1.00;;;;;;5134871;27;20313;-73
2021/10/11 03:01:10;;;;;;;58.78;3.42;;;2.80;1.00;;;;;;5135107;27;20569;-74
2021/10/11 03:03:39;;;;;;;58.65;3.05;;;2.80;1.00;;;;;;5134773;27;20298;-73
2021/10/11 03:06:07;;;;;;;58.88;3.50;;;2.80;1.00;;;;;;5134307;27;20468;-73
2021/10/11 03:08:34;;;;;;;58.95;3.70;;;2.80;1.00;;;;;;5134196;27;20302;-73
2021/10/11 03:11:02;;;;;;;58.85;3.10;;;2.80;1.00;;;;;;5134693;27;20207;-73
2021/10/11 03:13:29;;;;;;;58.38;3.00;;;2.80;1.00;;;;;;5134074;27;20210;-73
2021/10/11 03:15:57;;;;;;;58.72;3.55;;;2.80;1.00;;;;;;5133615;27;20202;-73
2021/10/11 03:18:24;;;;;;;58.55;2.80;;;2.80;1.00;;;;;;5134463;27;20313;-73
2021/10/11 03:20:52;;;;;;;58.40;3.10;;;2.80;1.00;;;;;;5134372;27;20213;-73
2021/10/11 03:23:19;;;;;;;58.65;3.13;;;2.70;1.00;;;;;;5134162;27;20234;-74
2021/10/11 03:25:46;;;;;;;58.05;3.30;;;2.70;1.00;;;;;;5134035;27;20243;-73
2021/10/11 03:28:13;;;;;;;59.00;3.95;;;2.70;1.00;;;;;;5134401;27;20223;-74
2021/10/11 03:30:40;;;;;;;58.78;2.95;;;2.70;1.00;;;;;;5134291;27;20203;-73
2021/10/11 03:33:07;;;;;;;58.67;3.20;;;2.70;1.00;;;;;;5134248;27;20294;-73
2021/10/11 03:35:34;;;;;;;58.50;3.00;;;2.70;1.00;;;;;;5133703;27;20291;-74
2021/10/11 03:38:02;;;;;;;58.58;3.15;;;2.70;1.00;;;;;;5133632;27;20249;-74
2021/10/11 03:40:29;;;;;;;59.08;3.90;;;2.70;1.00;;;;;;5134324;27;20619;-74
2021/10/11 03:42:56;;;;;;;58.50;2.88;;;2.60;1.00;;;;;;5134067;27;20750;-73
2021/10/11 03:45:23;;;;;;;59.67;3.60;;;2.60;1.00;;;;;;5133866;27;20203;-74
2021/10/11 03:47:50;;;;;;;58.45;3.00;;;2.50;1.00;;;;;;5134024;27;20286;-74
2021/10/11 03:50:17;;;;;;;58.67;3.20;;;2.50;1.00;;;;;;5133879;27;20215;-73
2021/10/11 03:52:44;;;;;;;58.85;3.13;;;2.50;1.00;;;;;;5134117;27;20228;-73
2021/10/11 03:55:12;;;;;;;58.45;3.00;;;2.50;1.00;;;;;;5133886;27;20210;-73
2021/10/11 03:57:39;;;;;;;58.72;3.33;;;2.50;1.00;;;;;;5133621;27;20222;-73
2021/10/11 04:00:07;;;;;;;58.45;4.20;;;2.40;1.00;;;;;;5133802;27;20298;-74
2021/10/11 04:02:34;;;;;;;58.38;3.20;;;2.40;1.00;;;;;;5133333;27;20218;-74
2021/10/11 04:05:01;;;;;;;58.75;3.30;;;2.40;1.00;;;;;;5134002;27;20235;-73
2021/10/11 04:07:28;;;;;;;58.65;3.30;;;2.40;1.00;;;;;;5133662;27;20286;-73
2021/10/11 04:09:58;;;;;;;59.05;3.63;;;2.40;1.00;;;;;;5133845;27;20631;-73
2021/10/11 04:12:34;;;;;;;58.15;3.17;;;2.40;1.00;;;;;;5133897;27;20207;-73
2021/10/11 04:15:01;;;;;;;59.10;4.13;;;2.30;1.00;;;;;;5133409;27;20585;-73
2021/10/11 04:17:28;;;;;;;58.75;3.28;;;2.30;1.00;;;;;;5133081;27;20666;-74
2021/10/11 04:19:55;;;;;;;58.88;3.33;;;2.30;1.00;;;;;;5133252;27;20227;-73
2021/10/11 04:22:23;;;;;;;59.17;3.70;;;2.30;1.00;;;;;;5133324;27;20203;-74
2021/10/11 04:24:50;;;;;;;58.90;3.38;;;2.30;1.00;;;;;;5133254;27;20211;-73
2021/10/11 04:27:17;;;;;;;58.38;3.10;;;2.30;1.00;;;;;;5133089;27;20294;-74
2021/10/11 04:29:45;;;;;;;58.42;3.15;;;2.30;1.00;;;;;;5133065;27;20329;-73
2021/10/11 04:32:12;;;;;;;58.70;3.00;;;2.30;1.00;;;;;;5133422;27;20242;-73
2021/10/11 04:34:39;;;;;;;58.65;3.10;;;2.40;1.00;;;;;;5133044;27;20218;-74
2021/10/11 04:37:06;;;;;;;58.42;3.03;;;2.40;1.00;;;;;;5132823;27;20299;-73
2021/10/11 04:39:33;;;;;;;58.80;3.10;;;2.40;1.00;;;;;;5132900;27;20236;-73
2021/10/11 04:42:00;;;;;;;59.28;4.25;;;2.50;1.00;;;;;;5133236;27;20241;-73
2021/10/11 04:44:27;;;;;;;58.67;3.30;;;2.50;1.00;;;;;;5133074;27;20207;-73
2021/10/11 04:46:55;;;;;;;58.90;3.50;;;2.50;1.00;;;;;;5132880;27;20674;-73
2021/10/11 04:49:22;;;;;;;58.45;3.30;;;2.50;1.00;;;;;;5133066;27;20251;-73
2021/10/11 04:51:49;;;;;;;58.33;3.10;;;2.50;1.00;;;;;;5133061;27;20286;-73
2021/10/11 04:54:16;;;;;;;58.67;3.00;;;2.50;1.00;;;;;;5132954;27;20230;-73
2021/10/11 04:56:43;;;;;;;58.60;3.30;;;2.50;1.00;;;;;;5132538;27;20330;-73
2021/10/11 04:59:10;;;;;;;58.55;3.20;;;2.50;1.00;;;;;;5132585;27;20720;-73
2021/10/11 05:01:36;;;;;;;58.88;3.70;;;2.50;1.00;;;;;;5132753;27;20234;-73
2021/10/11 05:04:05;;;;;;;58.58;3.40;;;2.50;1.00;;;;;;5132790;27;20239;-73
2021/10/11 05:06:32;;;;;;;58.53;3.30;;;2.40;1.00;;;;;;5132485;27;20210;-73
2021/10/11 05:09:00;;;;;;;58.35;3.00;;;2.40;1.00;;;;;;5132584;27;20219;-73
2021/10/11 05:11:28;;;;;;;57.90;3.17;;;2.40;1.00;;;;;;5132569;28;20248;-73
2021/10/11 05:13:55;;;;;;;58.55;3.40;;;2.40;1.00;;;;;;5132773;28;20675;-73
2021/10/11 05:16:22;;;;;;;58.47;2.75;;;2.40;1.00;;;;;;5132410;28;20302;-73
2021/10/11 05:18:49;;;;;;;58.47;3.30;;;2.40;1.00;;;;;;5132453;28;20641;-73
2021/10/11 05:21:17;;;;;;;58.28;3.40;;;2.40;1.00;;;;;;5132678;28;20234;-73
2021/10/11 05:23:44;;;;;;;59.50;3.72;;;2.40;1.00;;;;;;5132344;28;20261;-73
2021/10/11 05:26:11;;;;;;;58.67;3.08;;;2.30;1.00;;;;;;5132527;28;20213;-72
2021/10/11 05:28:38;;;;;;;58.47;3.30;;;2.30;1.00;;;;;;5132771;28;20223;-72
2021/10/11 05:31:05;;;;;;;58.78;3.25;;;2.30;1.00;;;;;;5132803;28;20207;-72
2021/10/11 05:33:32;;;;;;;58.65;3.20;;;2.30;1.00;;;;;;5132645;28;20209;-73
2021/10/11 05:35:59;;;;;;;58.45;3.00;;;2.30;1.00;;;;;;5132225;28;20611;-73
2021/10/11 05:38:28;;;;;;;57.90;3.03;;;2.30;1.00;;;;;;5132315;28;20319;-72
2021/10/11 05:40:55;;;;;;;58.80;3.30;;;2.30;1.00;;;;;;5132475;28;20747;-72
2021/10/11 05:43:22;;;;;;;58.65;3.20;;;2.20;1.00;;;;;;5132777;28;20206;-72
2021/10/11 05:45:49;;;;;;;58.60;2.90;;;2.20;1.00;;;;;;5132193;28;20213;-72
2021/10/11 05:48:16;;;;;;;58.40;3.65;;;2.30;1.00;;;;;;5132316;28;20225;-73
2021/10/11 05:50:43;;;;;;;58.70;3.63;;;2.20;1.00;;;;;;5132372;28;20210;-72
2021/10/11 05:53:10;;;;;;;58.33;3.38;;;2.30;1.00;;;;;;5132080;28;20785;-73
2021/10/11 05:55:38;;;;;;;59.15;3.05;;;2.50;1.00;;;;;;5130895;28;20298;-73
2021/10/11 05:58:05;;;;;;;58.60;2.70;;;2.50;1.00;;;;;;5130662;28;20245;-73
2021/10/11 06:00:32;;;;;;;58.30;2.90;;;2.50;1.00;;;;;;5132221;27;20294;-72
2021/10/11 06:02:59;;;;;;;58.58;3.30;;;2.50;1.00;;;;;;5136048;27;20294;-73
2021/10/11 06:05:26;;;;;;;58.15;3.10;;;2.60;1.00;;;;;;5135595;27;20242;-73
2021/10/11 06:07:53;;;;;;;58.83;3.20;;;2.50;1.00;;;;;;5135904;27;20207;-73
2021/10/11 06:10:20;;;;;;;58.60;2.70;;;2.50;1.00;;;;;;5136133;27;20202;-73
2021/10/11 06:12:48;;;;;;;58.15;3.03;;;2.60;1.00;;;;;;5136052;27;20642;-72
2021/10/11 06:15:15;;;;;;;58.47;2.90;;;2.60;1.00;;;;;;5135738;27;20202;-73
2021/10/11 06:17:42;;;;;;;58.78;3.83;;;2.60;1.00;;;;;;5135524;27;20297;-73
2021/10/11 06:20:10;;;;;;;59.28;3.30;;;2.60;1.00;;;;;;5135609;27;20317;-73
2021/10/11 06:22:37;;;;;;;58.80;3.55;;;2.70;1.00;;;;;;5135670;27;20206;-73
2021/10/11 06:25:04;;;;;;;58.67;3.15;;;2.70;1.00;;;;;;5135635;27;20207;-73
2021/10/11 06:27:32;;;;;;;58.17;3.00;;;2.70;1.00;;;;;;5135507;27;20203;-73
2021/10/11 06:30:00;;;;;;;58.38;2.80;;;2.80;1.00;;;;;;5135580;27;20222;-73
2021/10/11 06:32:27;;;;;;;58.47;3.08;;;2.90;1.00;;;;;;5135586;27;20230;-73
2021/10/11 06:34:54;;;;;;;58.45;3.00;;;2.90;1.00;;;;;;5135429;27;20489;-72
2021/10/11 06:37:21;;;;;;;58.67;3.33;;;3.00;1.00;;;;;;5135276;27;20254;-73
2021/10/11 06:39:48;;;;;;;60.55;3.35;;;3.10;1.00;;;;;;5135377;27;20284;-73
2021/10/11 06:42:15;;;;;;;58.22;3.10;;;3.10;1.00;;;;;;5135363;27;20286;-73
2021/10/11 06:44:41;;;;;;;64.85;3.15;;;3.20;1.00;;;;;;5135327;27;20297;-72
2021/10/11 06:47:10;;;;;;;58.67;3.20;;;3.20;1.00;;;;;;5135021;27;20373;-73
2021/10/11 06:49:37;;;;;;;58.28;3.00;;;3.30;1.00;;;;;;5135306;27;20310;-74
2021/10/11 06:52:04;;;;;;;58.28;2.85;;;3.30;1.00;;;;;;5135314;27;20294;-73
2021/10/11 06:54:31;;;;;;;58.17;2.80;;;3.40;1.00;;;;;;5135243;27;20241;-73
2021/10/11 06:56:58;;;;;;;58.95;3.42;;;3.40;1.00;;;;;;5134792;27;20285;-73
2021/10/11 06:59:25;;;;;;;58.45;2.90;;;3.40;1.00;;;;;;5134858;27;20255;-73
2021/10/11 07:01:52;;;;;;;58.58;2.85;;;3.50;1.00;;;;;;5134854;27;20641;-73
2021/10/11 07:04:21;;;;;;;59.00;3.40;;;3.50;1.00;;;;;;5135184;27;20230;-73
2021/10/11 07:06:48;;;;;;;58.88;3.15;;;3.50;1.00;;;;;;5134533;27;20210;-73
2021/10/11 07:09:15;;;;;;;58.38;2.95;;;3.60;1.00;;;;;;5134869;27;20318;-74
2021/10/11 07:11:42;;;;;;;58.70;2.92;;;3.70;1.00;;;;;;5134615;27;20207;-71
2021/10/11 07:14:09;;;;;;;58.40;3.03;;;3.80;1.00;;;;;;5133840;27;20293;-72
2021/10/11 07:16:36;;;;;;;63.25;4.18;;;3.90;1.00;;;;;;5134300;27;20289;-72
2021/10/11 07:19:02;;;;;;;58.47;3.03;;;4.00;1.00;;;;;;5134652;27;20665;-71
2021/10/11 07:21:31;;;;;;;58.60;2.95;;;4.10;1.00;;;;;;5134471;27;20786;-71
2021/10/11 07:23:57;;;;;;;58.50;2.90;;;4.20;1.00;;;;;;5134355;27;20643;-73
2021/10/11 07:26:24;;;;;;;58.58;3.42;;;4.30;1.00;;;;;;5134294;27;20238;-72
2021/10/11 07:28:51;;;;;;;58.17;2.75;;;4.40;1.00;;;;;;5134344;27;20305;-72
2021/10/11 07:31:18;;;;;;;58.58;3.05;;;4.50;1.00;;;;;;5134605;27;20633;-72
2021/10/11 07:33:45;;;;;;;58.58;3.10;;;4.70;1.00;;;;;;5134365;27;20293;-71
2021/10/11 07:36:12;;;;;;;58.60;2.67;;;4.90;1.00;;;;;;5134222;27;20305;-72
2021/10/11 07:38:41;;;;;;;58.45;2.80;;;5.00;1.00;;;;;;5134323;27;20226;-71
2021/10/11 07:41:08;;;;;;;58.45;2.90;;;5.10;1.00;;;;;;5134279;27;20207;-72
2021/10/11 07:43:35;;;;;;;58.17;2.88;;;5.20;1.00;;;;;;5134056;27;20297;-72
2021/10/11 07:46:04;;;;;;;58.20;2.70;;;5.40;1.00;;;;;;5134049;27;20307;-73
2021/10/11 07:48:31;;;;;;;58.47;3.10;;;5.50;1.00;;;;;;5134133;27;20223;-72
2021/10/11 07:50:58;;;;;;;60.65;3.40;;;5.50;1.00;;;;;;5134088;27;20245;-72
2021/10/11 07:53:25;;;;;;;58.70;3.38;;;5.60;1.00;;;;;;5134057;27;20205;-72
2021/10/11 07:55:54;;;;;;;58.40;2.95;;;5.80;1.00;;;;;;5133692;27;20267;-73
2021/10/11 07:58:21;;;;;;;58.60;3.40;;;5.90;1.00;;;;;;5135313;27;20227;-73
2021/10/11 08:00:48;;;;;;;58.63;3.05;;;6.10;1.00;;;;;;5137557;27;20244;-73
2021/10/11 08:03:15;;;;;;;58.47;3.10;;;6.30;1.00;;;;;;5136743;27;20286;-74
2021/10/11 08:05:42;;;;;;;58.90;3.60;;;6.50;1.00;;;;;;5136511;27;20207;-73
2021/10/11 08:08:09;;;;;;;61.05;3.75;;;6.70;1.00;;;;;;5136022;27;20230;-73
2021/10/11 08:10:36;;;;;;;59.33;3.40;;;6.90;1.00;;;;;;5138610;27;20197;-72
2021/10/11 08:13:05;;;;;;;58.65;3.00;;;7.20;1.00;;;;;;5137767;27;20285;-73
2021/10/11 08:15:32;;;;;;;58.67;3.10;;;7.50;1.00;;;;;;5137557;27;20290;-73
2021/10/11 08:17:59;;;;;;;58.95;3.90;;;7.70;1.00;;;;;;5133755;27;20302;-73
2021/10/11 08:20:25;;;;;;;58.35;2.95;;;7.90;1.00;;;;;;5133543;27;20219;-73
2021/10/11 08:22:53;;;;;;;58.37;2.77;;;8.00;1.00;;;;;;5133397;27;20232;-73
2021/10/11 08:25:20;;;;;;;58.67;3.20;;;8.10;1.00;;;;;;5132714;27;20462;-73
2021/10/11 08:27:47;;;;;;;58.58;3.00;;;8.20;1.00;;;;;;5133407;27;20296;-73
2021/10/11 08:30:15;;;;;;;59.78;4.50;;;8.40;1.00;;;;;;5133549;27;20286;-73
2021/10/11 08:32:42;;;;;;;58.67;3.60;;;8.60;1.00;;;;;;5133326;27;20297;-73
2021/10/11 08:35:09;;;;;;;58.17;3.00;;;8.80;1.00;;;;;;5133119;27;20449;-72
2021/10/11 08:37:36;;;;;;;58.70;3.60;;;8.90;1.00;;;;;;5132957;27;20966;-72
2021/10/11 08:40:04;;;;;;;58.30;3.17;;;9.10;1.00;;;;;;5133111;27;20834;-72
2021/10/11 08:42:31;;;;;;;58.27;2.87;;;9.30;1.00;;;;;;5133514;27;20787;-73
2021/10/11 08:44:58;;;;;;;58.57;3.00;;;9.40;1.00;;;;;;5132984;27;20465;-73
2021/10/11 08:47:26;;;;;;;59.20;4.80;;;9.60;1.00;;;;;;5132957;27;20454;-72
2021/10/11 08:49:53;;;;;;;58.33;3.13;;;9.70;1.00;;;;;;5133102;27;20547;-72
2021/10/11 08:52:24;;;;;;;58.77;3.47;;;9.80;1.00;;;;;;5132967;27;20447;-73
2021/10/11 08:54:52;;;;;;;58.47;3.10;;;10.10;1.00;;;;;;5133178;27;20447;-72
2021/10/11 08:57:24;;;;;;;58.40;3.03;;;10.30;1.00;;;;;;5124399;27;20455;-72
2021/10/11 08:59:52;;;;;;;58.37;3.27;;;10.40;1.00;;;;;;5130120;27;20606;-72
2021/10/11 09:02:20;;;;;;;58.87;3.17;;;10.50;1.00;;;;;;5132301;27;20451;-72
2021/10/11 09:04:51;;;;;;;60.17;3.20;;;10.60;1.00;;;;;;5131939;27;20444;-71
2021/10/11 09:07:22;;;;;;;58.47;3.40;;;10.80;1.00;;;;;;5132313;27;20547;-71
2021/10/11 09:09:51;;;;;;;59.90;3.30;;;11.00;1.00;;;;;;5132283;27;20512;-71
2021/10/11 09:12:19;;;;;;;58.40;3.30;;;11.30;1.00;;;;;;5132303;28;20440;-72
2021/10/11 09:14:52;;;;;;;57.97;2.97;;;11.50;1.00;;;;;;5132261;28;20450;-71
2021/10/11 09:17:24;;;;;;;58.03;2.77;;;11.60;1.00;;;;;;5131713;28;21020;-71
2021/10/11 09:19:58;;;;;;;58.30;2.80;;;11.70;1.00;;;;;;5132158;28;20574;-71
2021/10/11 09:22:36;;;;;;;58.60;3.37;;;12.00;1.00;;;;;;5132211;28;20444;-71
2021/10/11 09:25:05;;;;;;;58.17;2.70;;;12.30;1.00;;;;;;5132418;28;20492;-72
2021/10/11 09:27:43;;;;;;;58.27;3.10;;;12.50;1.00;;;;;;5131760;28;20472;-72
2021/10/11 09:30:10;;;;;;;58.90;3.57;;;12.80;1.00;;;;;;5132150;28;20449;-72
2021/10/11 09:32:38;;;;;;;58.60;3.40;;;13.00;1.00;;;;;;5131317;28;20531;-71
2021/10/11 09:35:11;;;;;;;58.37;2.80;;;13.10;1.00;;;;;;5132717;27;20531;-71
2021/10/11 09:37:39;;;;;;;58.13;2.80;;;13.40;1.00;;;;;;5136212;27;20486;-71
2021/10/11 09:40:07;;;;;;;58.30;2.97;;;13.70;1.00;;;;;;5136772;27;20568;-72
2021/10/11 09:42:35;;;;;;;58.47;3.90;;;14.30;1.00;;;;;;5136998;27;20524;-72
2021/10/11 09:45:03;;;;;;;58.80;3.20;;;14.80;1.00;;;;;;5136707;27;20440;-72
2021/10/11 09:47:33;;;;;;;58.90;3.10;;;15.00;1.00;;;;;;5136059;27;20545;-72
2021/10/11 09:50:02;;;;;;;58.07;2.70;;;15.20;1.00;;;;;;5135893;27;20864;-71
2021/10/11 09:52:31;;;;;;;59.30;3.97;;;15.60;1.00;;;;;;5136389;27;20533;-72
2021/10/11 09:54:59;;;;;;;58.27;2.70;;;16.00;1.00;;;;;;5136199;27;20454;-71
2021/10/11 09:57:26;;;;;;;58.60;3.33;;;16.50;1.00;;;;;;5136146;27;20838;-71
2021/10/11 09:59:54;;;;;;;57.97;2.90;;;16.70;1.00;;;;;;5136490;27;20844;-72
2021/10/11 10:02:26;;;;;;;57.87;2.80;;;17.20;1.00;;;;;;5136681;27;20443;-72
2021/10/11 10:04:56;;;;;;;59.87;3.40;;;18.00;1.00;;;;;;5134059;27;20984;-72
2021/10/11 10:07:27;;;;;;;60.07;3.47;;;18.80;1.00;;;;;;5135361;27;20453;-71
2021/10/11 10:09:57;;;;;;;60.00;3.67;;;19.60;1.00;;;;;;5134571;27;20846;-71
2021/10/11 10:12:24;;;;;;;58.17;2.50;;;20.00;1.00;;;;;;5136070;27;20484;-72
2021/10/11 10:14:59;;;;;;;58.63;3.70;;;20.30;1.00;;;;;;5135757;27;20451;-72
2021/10/11 10:17:31;;;;;;;58.23;3.10;;;20.30;1.00;;;;;;5135505;27;20936;-71
2021/10/11 10:20:11;;;;;;;58.37;3.23;;;20.60;1.00;;;;;;5135562;27;20943;-71
2021/10/11 10:22:51;;;;;;;58.57;3.33;;;20.90;1.00;;;;;;5135934;27;20535;-72
2021/10/11 10:25:22;;;;;;;58.00;2.90;;;21.20;1.00;;;;;;5135555;27;20463;-71
2021/10/11 10:27:51;;;;;;;58.73;3.20;;;21.50;1.00;;;;;;5135246;27;20456;-69
2021/10/11 10:30:21;;;;;;;59.53;3.10;;;22.00;1.00;;;;;;5135105;27;20448;-69
2021/10/11 10:32:55;;;;;;;58.20;3.20;;;22.30;1.00;;;;;;5135659;27;20543;-70
2021/10/11 10:35:23;;;;;;;58.97;2.93;;;22.50;1.00;;;;;;5135292;27;20448;-71
2021/10/11 10:37:50;;;;;;;60.37;3.17;;;22.40;1.00;;;;;;5133452;27;20889;-71
2021/10/11 10:40:20;;;;;;;57.97;2.53;;;22.60;1.00;;;;;;5135220;27;20999;-71
2021/10/11 10:42:48;;;;;;;58.80;3.47;;;23.20;1.00;;;;;;5135399;27;20843;-71
2021/10/11 10:45:18;;;;;;;59.20;3.47;;;23.80;1.00;;;;;;5135288;27;20944;-71
2021/10/11 10:47:45;;;;;;;58.60;3.30;;;24.30;1.00;;;;;;5134548;27;20481;-70
2021/10/11 10:50:17;;;;;;;58.07;2.50;;;24.70;1.00;;;;;;5134595;27;20482;-71
2021/10/11 10:52:47;;;;;;;58.97;4.00;;;25.30;1.00;;;;;;5135030;27;20443;-71
2021/10/11 10:55:14;;;;;;;59.97;3.60;;;25.60;1.00;;;;;;5135392;27;20531;-71
2021/10/11 10:57:43;;;;;;;58.53;2.90;;;25.60;1.00;;;;;;5134773;27;20475;-71
2021/10/11 11:00:16;;;;;;;60.67;4.00;;;25.70;1.00;;;;;;5135228;27;20483;-70
2021/10/11 11:02:45;;;;;;;58.37;2.90;;;26.10;1.00;;;;;;5135090;27;20456;-71
2021/10/11 11:05:14;;;;;;;60.47;3.57;;;26.40;1.00;;;;;;5134844;27;20445;-70
2021/10/11 11:07:42;;;;;;;58.17;2.63;;;26.30;1.00;;;;;;5134499;27;20817;-72
2021/10/11 11:10:12;;;;;;;57.83;2.90;;;26.10;1.00;;;;;;5132815;27;20539;-71
2021/10/11 11:12:44;;;;;;;58.33;2.90;;;26.00;1.00;;;;;;5134270;27;20447;-71
2021/10/11 11:15:21;;;;;;;59.07;3.20;;;25.90;1.00;;;;;;5134510;27;20448;-71
2021/10/11 11:17:48;;;;;;;58.10;2.90;;;25.90;1.00;;;;;;5134153;27;20441;-72
2021/10/11 11:20:18;;;;;;;58.00;2.90;;;25.90;1.00;;;;;;5133718;27;20476;-71
2021/10/11 11:22:45;;;;;;;59.30;3.60;;;25.90;1.00;;;;;;5134518;27;20437;-72
2021/10/11 11:25:13;;;;;;;58.47;2.63;;;26.20;1.00;;;;;;5134279;27;20459;-72
2021/10/11 11:27:42;;;;;;;58.87;4.07;;;26.30;1.00;;;;;;5134424;27;20523;-72
2021/10/11 11:30:12;;;;;;;58.57;3.60;;;26.40;1.00;;;;;;5134293;27;20544;-71
2021/10/11 11:32:46;;;;;;;59.10;3.40;;;26.10;1.00;;;;;;5133675;27;21000;-72
2021/10/11 11:35:17;;;;;;;59.30;2.80;;;25.80;1.00;;;;;;5134171;27;20443;-71
2021/10/11 11:37:46;;;;;;;58.47;2.80;;;25.90;1.00;;;;;;5133727;27;20527;-72
2021/10/11 11:40:14;;;;;;;61.70;3.33;;;26.20;1.00;;;;;;5133904;27;20567;-71
2021/10/11 11:42:42;;;;;;;57.47;2.13;;;26.70;1.00;;;;;;5132940;27;20476;-72
2021/10/11 11:45:09;;;;;;;58.70;3.70;;;27.40;1.00;;;;;;5133927;27;20531;-71
2021/10/11 11:47:36;;;;;;;59.27;3.10;;;27.90;1.00;;;;;;5134129;27;20445;-71
2021/10/11 11:50:08;;;;;;;59.50;4.00;;;28.10;1.00;;;;;;5133890;27;20552;-71
2021/10/11 11:52:35;;;;;;;58.07;2.80;;;28.20;1.00;;;;;;5133642;27;20452;-71
2021/10/11 11:55:03;;;;;;;58.30;3.23;;;28.60;1.00;;;;;;5133626;27;20447;-71
2021/10/11 11:57:42;;;;;;;58.60;3.20;;;28.90;99.90;;;;;;5133555;27;20534;-71
2021/10/11 12:00:11;;;;;;;57.87;2.90;;;28.70;99.90;;;;;;5133095;27;21049;-71
2021/10/11 12:02:39;;;;;;;58.57;3.57;;;28.40;1.00;;;;;;5133935;27;20858;-70
2021/10/11 12:05:08;;;;;;;58.80;3.13;;;28.40;99.90;;;;;;5133806;27;20540;-71
2021/10/11 12:07:35;;;;;;;60.23;3.27;;;28.50;1.00;;;;;;5133366;27;20449;-70
2021/10/11 12:10:03;;;;;;;58.17;2.90;;;28.80;1.00;;;;;;5133372;27;20465;-71
2021/10/11 12:12:33;;;;;;;58.60;3.30;;;29.20;1.00;;;;;;5131504;27;20466;-71
2021/10/11 12:15:02;;;;;;;58.10;2.80;;;29.40;99.90;;;;;;5133248;27;20568;-71
2021/10/11 12:17:37;;;;;;;57.57;2.73;;;29.80;99.90;;;;;;5132695;27;20541;-71
2021/10/11 12:20:05;;;;;;;59.23;3.00;;;30.10;99.90;;;;;;5133121;27;20473;-71
2021/10/11 12:22:33;;;;;;;60.37;3.20;;;30.30;99.90;;;;;;5133166;27;20538;-71
2021/10/11 12:25:01;;;;;;;57.80;2.30;;;29.70;99.90;;;;;;5133269;27;20541;-71
2021/10/11 12:27:29;;;;;;;58.70;3.20;;;29.30;99.90;;;;;;5132876;27;20529;-71
2021/10/11 12:30:00;;;;;;;57.50;2.23;;;29.20;99.90;;;;;;5133073;27;20901;-71
2021/10/11 12:32:31;;;;;;;57.87;2.73;;;29.10;99.90;;;;;;5132988;27;20455;-71
2021/10/11 12:35:00;;;;;;;59.20;2.90;;;29.40;99.90;;;;;;5132726;27;20542;-71
2021/10/11 12:37:35;;;;;;;57.67;3.53;;;29.50;99.90;;;;;;5132748;27;20453;-69
2021/10/11 12:40:04;;;;;;;58.07;2.80;;;29.70;99.90;;;;;;5133319;27;20467;-69
2021/10/11 12:42:31;;;;;;;58.47;2.67;;;29.50;99.90;;;;;;5133173;27;20473;-72
2021/10/11 12:45:02;;;;;;;57.90;2.50;;;29.40;99.90;;;;;;5131030;27;20545;-71
2021/10/11 12:47:32;;;;;;;59.40;3.90;;;29.70;99.90;;;;;;5132682;27;20447;-71
2021/10/11 12:50:02;;;;;;;57.37;2.13;;;29.90;99.90;;;;;;5132719;27;20532;-71
2021/10/11 12:52:33;;;;;;;57.67;2.70;;;30.40;99.90;;;;;;5132751;27;20438;-71
2021/10/11 12:55:09;;;;;;;58.10;2.80;;;30.80;99.90;;;;;;5132149;27;20535;-71
2021/10/11 12:57:36;;;;;;;58.67;3.40;;;31.30;99.90;;;;;;5132661;27;20440;-71